Airfield :
LOGIN :

Register | Disclaimer

   EN    FR    IT 

 










Legend :    VFR   Marginal VFR   IFR   Intensive IFR   Very Intensive IFR
Visi :
Ceiling :
>= 8 km
>= 3000ft
5 to 8 km
1000 to 3000 ft
1500m to 5 km
500 to 1000 ft
800 to 1500m
200 to 500 ft
< 800m
< 200 ft
Symbols :   Thunderstorms  Fog  Heavy snow  Heavy precipitations  Wind > 20 kt
SIGMETs :     Misc.  Thunderstorms  Icing  Turbulence  Mountain Waves  Volcanic Ashes






- Airport Elevation : 1989 ft
- IATA code : KLV


LKKV - Karlovy Vary

CURRENT METAR :
  • 280712Z 13003KT 1000 R29/1900D BR OVC002 M03/M03 Q1020 RMK REG QNH 1018

EXPIRED METARs :
  • 280700Z 12002KT 0400 R29/0500 FZFG OVC002 M03/M03 Q1020
  • 280630Z VRB02KT 0600 R29/0700 FZFG OVC001 M03/M03 Q1020
  • 280600Z 00000KT 0500 R29/1100D FZFG VV001 M03/M03 Q1019
  • 280500Z 00000KT 0500 R29/0650N FZFG OVC001 M04/M04 Q1019

TAF TAF LKKV
Valid from the 28 at 06:00 until the 29 at 12:00 UTC


280500Z 2806/2912 VRB02KT 0500 FZFG OVC002
TEMPO 2806/2809 0200 FZFG VV001
BECMG 2809/2811 07004KT 5000 BR BKN012
BECMG 2811/2813 9999 BKN020
BECMG 2821/2823 2000 BR NSC
TEMPO 2904/2909 0800 FZFG NSC
BECMG 2909/2912 CAVOK



MET'MAP, your aeronautical weather chart ! - Copyright ORBIFLY December 2007 - Disclaimer

ORBIFLY MET'MAP TEAM :

Programming & Development : Alexandra Zaïnal
Concept & original design : Baudouin d'Aumeries
Assistance for programming : Marc-Olivier Méhu
Technical & hardware support : Manuel Goepfert

Contact : metmap@orbifly.com




SOURCES & CREDITS :

   NOAA